sensor_id;sensor_type;location;lat;lon;timestamp;pressure;altitude;pressure_sealevel;temperature
35582;BMP180;21687;48.900;9.188;2023-08-06T00:00:41;97705.00;;;14.00
35582;BMP180;21687;48.900;9.188;2023-08-06T00:03:07;97702.00;;;14.00
35582;BMP180;21687;48.900;9.188;2023-08-06T00:05:33;97696.00;;;14.00
35582;BMP180;21687;48.900;9.188;2023-08-06T00:08:00;97692.00;;;14.00
35582;BMP180;21687;48.900;9.188;2023-08-06T00:10:26;97693.00;;;13.90
35582;BMP180;21687;48.900;9.188;2023-08-06T00:12:53;97692.00;;;13.70
35582;BMP180;21687;48.900;9.188;2023-08-06T00:15:19;97689.00;;;13.70
35582;BMP180;21687;48.900;9.188;2023-08-06T00:17:45;97679.00;;;13.70
35582;BMP180;21687;48.900;9.188;2023-08-06T00:20:11;97683.00;;;13.60
35582;BMP180;21687;48.900;9.188;2023-08-06T00:22:38;97686.00;;;13.50
35582;BMP180;21687;48.900;9.188;2023-08-06T00:25:05;97682.00;;;13.50
35582;BMP180;21687;48.900;9.188;2023-08-06T00:27:32;97669.00;;;13.50
35582;BMP180;21687;48.900;9.188;2023-08-06T00:30:01;97675.00;;;13.50
35582;BMP180;21687;48.900;9.188;2023-08-06T00:32:27;97679.00;;;13.40
35582;BMP180;21687;48.900;9.188;2023-08-06T00:34:53;97670.00;;;13.30
35582;BMP180;21687;48.900;9.188;2023-08-06T00:37:20;97674.00;;;13.20
35582;BMP180;21687;48.900;9.188;2023-08-06T00:39:46;97670.00;;;13.10
35582;BMP180;21687;48.900;9.188;2023-08-06T00:42:13;97669.00;;;13.10
35582;BMP180;21687;48.900;9.188;2023-08-06T00:44:39;97676.00;;;13.10
35582;BMP180;21687;48.900;9.188;2023-08-06T00:47:08;97674.00;;;13.20
35582;BMP180;21687;48.900;9.188;2023-08-06T00:49:35;97671.00;;;13.30
35582;BMP180;21687;48.900;9.188;2023-08-06T00:52:03;97664.00;;;13.40
35582;BMP180;21687;48.900;9.188;2023-08-06T00:54:31;97666.00;;;13.50
35582;BMP180;21687;48.900;9.188;2023-08-06T00:56:58;97664.00;;;13.60
35582;BMP180;21687;48.900;9.188;2023-08-06T00:59:26;97665.00;;;13.70
35582;BMP180;21687;48.900;9.188;2023-08-06T01:01:52;97650.00;;;13.70
35582;BMP180;21687;48.900;9.188;2023-08-06T01:04:19;97651.00;;;13.80
35582;BMP180;21687;48.900;9.188;2023-08-06T01:07:13;97653.00;;;13.80
35582;BMP180;21687;48.900;9.188;2023-08-06T01:09:43;97654.00;;;13.70
35582;BMP180;21687;48.900;9.188;2023-08-06T01:15:20;97651.00;;;13.60
35582;BMP180;21687;48.900;9.188;2023-08-06T01:17:48;97645.00;;;13.60
35582;BMP180;21687;48.900;9.188;2023-08-06T01:20:14;97644.00;;;13.50
35582;BMP180;21687;48.900;9.188;2023-08-06T01:22:40;97630.00;;;13.50
35582;BMP180;21687;48.900;9.188;2023-08-06T01:25:07;97624.00;;;13.40
35582;BMP180;21687;48.900;9.188;2023-08-06T01:27:47;97631.00;;;13.30
35582;BMP180;21687;48.900;9.188;2023-08-06T01:30:16;97622.00;;;13.30
35582;BMP180;21687;48.900;9.188;2023-08-06T01:32:46;97633.00;;;13.30
35582;BMP180;21687;48.900;9.188;2023-08-06T01:35:16;97623.00;;;13.30
35582;BMP180;21687;48.900;9.188;2023-08-06T01:37:43;97631.00;;;13.40
35582;BMP180;21687;48.900;9.188;2023-08-06T01:40:11;97620.00;;;13.40
35582;BMP180;21687;48.900;9.188;2023-08-06T01:42:38;97620.00;;;13.40
35582;BMP180;21687;48.900;9.188;2023-08-06T01:45:06;97628.00;;;13.40
35582;BMP180;21687;48.900;9.188;2023-08-06T01:47:32;97619.00;;;13.40
35582;BMP180;21687;48.900;9.188;2023-08-06T01:49:59;97621.00;;;13.50
35582;BMP180;21687;48.900;9.188;2023-08-06T01:52:26;97610.00;;;13.60
35582;BMP180;21687;48.900;9.188;2023-08-06T01:54:53;97611.00;;;13.60
35582;BMP180;21687;48.900;9.188;2023-08-06T01:57:20;97612.00;;;13.60
35582;BMP180;21687;48.900;9.188;2023-08-06T01:59:46;97601.00;;;13.60
35582;BMP180;21687;48.900;9.188;2023-08-06T02:02:12;97600.00;;;13.60
35582;BMP180;21687;48.900;9.188;2023-08-06T02:04:39;97598.00;;;13.50
35582;BMP180;21687;48.900;9.188;2023-08-06T02:07:05;97591.00;;;13.40
35582;BMP180;21687;48.900;9.188;2023-08-06T02:09:31;97583.00;;;13.30
35582;BMP180;21687;48.900;9.188;2023-08-06T02:11:58;97585.00;;;13.20
35582;BMP180;21687;48.900;9.188;2023-08-06T02:14:24;97582.00;;;13.20
35582;BMP180;21687;48.900;9.188;2023-08-06T02:16:50;97585.00;;;13.00
35582;BMP180;21687;48.900;9.188;2023-08-06T02:19:17;97585.00;;;13.00
35582;BMP180;21687;48.900;9.188;2023-08-06T02:21:43;97579.00;;;13.00
35582;BMP180;21687;48.900;9.188;2023-08-06T02:24:09;97580.00;;;12.90
35582;BMP180;21687;48.900;9.188;2023-08-06T02:26:36;97575.00;;;12.90
35582;BMP180;21687;48.900;9.188;2023-08-06T02:29:02;97558.00;;;12.80
35582;BMP180;21687;48.900;9.188;2023-08-06T02:31:28;97563.00;;;12.70
35582;BMP180;21687;48.900;9.188;2023-08-06T02:33:55;97566.00;;;12.70
35582;BMP180;21687;48.900;9.188;2023-08-06T02:36:21;97561.00;;;12.60
35582;BMP180;21687;48.900;9.188;2023-08-06T02:38:47;97560.00;;;12.60
35582;BMP180;21687;48.900;9.188;2023-08-06T02:41:14;97557.00;;;12.60
35582;BMP180;21687;48.900;9.188;2023-08-06T02:43:40;97542.00;;;12.50
35582;BMP180;21687;48.900;9.188;2023-08-06T02:46:06;97547.00;;;12.40
35582;BMP180;21687;48.900;9.188;2023-08-06T02:48:32;97544.00;;;12.50
35582;BMP180;21687;48.900;9.188;2023-08-06T02:50:59;97539.00;;;12.50
35582;BMP180;21687;48.900;9.188;2023-08-06T02:53:26;97541.00;;;12.60
35582;BMP180;21687;48.900;9.188;2023-08-06T02:55:52;97544.00;;;12.50
35582;BMP180;21687;48.900;9.188;2023-08-06T02:58:19;97528.00;;;12.50
35582;BMP180;21687;48.900;9.188;2023-08-06T03:01:08;97528.00;;;12.40
35582;BMP180;21687;48.900;9.188;2023-08-06T03:03:35;97528.00;;;12.30
35582;BMP180;21687;48.900;9.188;2023-08-06T03:06:01;97526.00;;;12.40
35582;BMP180;21687;48.900;9.188;2023-08-06T03:08:28;97527.00;;;12.50
35582;BMP180;21687;48.900;9.188;2023-08-06T03:10:55;97531.00;;;12.40
35582;BMP180;21687;48.900;9.188;2023-08-06T03:13:21;97530.00;;;12.40
35582;BMP180;21687;48.900;9.188;2023-08-06T03:15:54;97524.00;;;12.40
35582;BMP180;21687;48.900;9.188;2023-08-06T03:18:21;97521.00;;;12.40
35582;BMP180;21687;48.900;9.188;2023-08-06T03:20:48;97525.00;;;12.40
35582;BMP180;21687;48.900;9.188;2023-08-06T03:23:14;97525.00;;;12.50
35582;BMP180;21687;48.900;9.188;2023-08-06T03:25:40;97523.00;;;12.60
35582;BMP180;21687;48.900;9.188;2023-08-06T03:28:07;97532.00;;;12.60
35582;BMP180;21687;48.900;9.188;2023-08-06T03:30:33;97540.00;;;12.60
35582;BMP180;21687;48.900;9.188;2023-08-06T03:32:59;97530.00;;;12.70
35582;BMP180;21687;48.900;9.188;2023-08-06T03:35:25;97536.00;;;12.70
35582;BMP180;21687;48.900;9.188;2023-08-06T03:37:52;97529.00;;;12.80
35582;BMP180;21687;48.900;9.188;2023-08-06T03:40:18;97533.00;;;12.80
35582;BMP180;21687;48.900;9.188;2023-08-06T03:42:44;97523.00;;;12.80
35582;BMP180;21687;48.900;9.188;2023-08-06T03:45:10;97526.00;;;12.90
35582;BMP180;21687;48.900;9.188;2023-08-06T03:47:37;97531.00;;;12.90
35582;BMP180;21687;48.900;9.188;2023-08-06T03:50:03;97524.00;;;12.90
35582;BMP180;21687;48.900;9.188;2023-08-06T03:52:30;97522.00;;;12.90
35582;BMP180;21687;48.900;9.188;2023-08-06T03:54:56;97520.00;;;12.80
35582;BMP180;21687;48.900;9.188;2023-08-06T03:57:22;97519.00;;;12.80
35582;BMP180;21687;48.900;9.188;2023-08-06T03:59:49;97518.00;;;12.80
35582;BMP180;21687;48.900;9.188;2023-08-06T04:02:15;97524.00;;;12.80
35582;BMP180;21687;48.900;9.188;2023-08-06T04:04:41;97521.00;;;12.90
35582;BMP180;21687;48.900;9.188;2023-08-06T04:07:07;97528.00;;;12.90
35582;BMP180;21687;48.900;9.188;2023-08-06T04:09:34;97521.00;;;12.90
35582;BMP180;21687;48.900;9.188;2023-08-06T04:12:00;97533.00;;;13.00
35582;BMP180;21687;48.900;9.188;2023-08-06T04:14:28;97533.00;;;13.00
35582;BMP180;21687;48.900;9.188;2023-08-06T04:16:54;97539.00;;;13.10
35582;BMP180;21687;48.900;9.188;2023-08-06T04:19:21;97547.00;;;13.10
35582;BMP180;21687;48.900;9.188;2023-08-06T04:21:47;97536.00;;;13.00
35582;BMP180;21687;48.900;9.188;2023-08-06T04:24:13;97551.00;;;13.10
35582;BMP180;21687;48.900;9.188;2023-08-06T04:26:39;97554.00;;;13.10
35582;BMP180;21687;48.900;9.188;2023-08-06T04:29:06;97552.00;;;13.10
35582;BMP180;21687;48.900;9.188;2023-08-06T04:31:32;97546.00;;;13.10
35582;BMP180;21687;48.900;9.188;2023-08-06T04:33:58;97537.00;;;13.10
35582;BMP180;21687;48.900;9.188;2023-08-06T04:36:24;97539.00;;;13.00
35582;BMP180;21687;48.900;9.188;2023-08-06T04:38:51;97535.00;;;12.90
35582;BMP180;21687;48.900;9.188;2023-08-06T04:41:17;97543.00;;;12.80
35582;BMP180;21687;48.900;9.188;2023-08-06T04:43:44;97537.00;;;12.80
35582;BMP180;21687;48.900;9.188;2023-08-06T04:46:10;97539.00;;;12.80
35582;BMP180;21687;48.900;9.188;2023-08-06T04:48:36;97541.00;;;12.90
35582;BMP180;21687;48.900;9.188;2023-08-06T04:51:02;97549.00;;;13.00
35582;BMP180;21687;48.900;9.188;2023-08-06T04:53:29;97562.00;;;13.00
35582;BMP180;21687;48.900;9.188;2023-08-06T04:55:55;97549.00;;;13.00
35582;BMP180;21687;48.900;9.188;2023-08-06T04:58:22;97547.00;;;12.90
35582;BMP180;21687;48.900;9.188;2023-08-06T05:00:48;97545.00;;;12.90
35582;BMP180;21687;48.900;9.188;2023-08-06T05:03:14;97545.00;;;13.00
35582;BMP180;21687;48.900;9.188;2023-08-06T05:05:41;97547.00;;;13.00
35582;BMP180;21687;48.900;9.188;2023-08-06T05:08:11;97550.00;;;13.10
35582;BMP180;21687;48.900;9.188;2023-08-06T05:10:43;97554.00;;;13.10
35582;BMP180;21687;48.900;9.188;2023-08-06T05:13:10;97537.00;;;13.20
35582;BMP180;21687;48.900;9.188;2023-08-06T05:15:36;97545.00;;;13.30
35582;BMP180;21687;48.900;9.188;2023-08-06T05:18:03;97542.00;;;13.40
35582;BMP180;21687;48.900;9.188;2023-08-06T05:20:29;97540.00;;;13.50
35582;BMP180;21687;48.900;9.188;2023-08-06T05:22:55;97538.00;;;13.60
35582;BMP180;21687;48.900;9.188;2023-08-06T05:25:21;97537.00;;;13.80
35582;BMP180;21687;48.900;9.188;2023-08-06T05:27:48;97539.00;;;13.80
35582;BMP180;21687;48.900;9.188;2023-08-06T05:30:14;97540.00;;;13.90
35582;BMP180;21687;48.900;9.188;2023-08-06T05:32:40;97549.00;;;13.90
35582;BMP180;21687;48.900;9.188;2023-08-06T05:35:06;97535.00;;;14.10
35582;BMP180;21687;48.900;9.188;2023-08-06T05:37:33;97542.00;;;14.20
35582;BMP180;21687;48.900;9.188;2023-08-06T05:39:59;97553.00;;;14.20
35582;BMP180;21687;48.900;9.188;2023-08-06T05:42:25;97552.00;;;14.30
35582;BMP180;21687;48.900;9.188;2023-08-06T05:44:52;97549.00;;;14.30
35582;BMP180;21687;48.900;9.188;2023-08-06T05:47:18;97546.00;;;14.40
35582;BMP180;21687;48.900;9.188;2023-08-06T05:49:46;97553.00;;;14.40
35582;BMP180;21687;48.900;9.188;2023-08-06T05:52:12;97558.00;;;14.30
35582;BMP180;21687;48.900;9.188;2023-08-06T05:54:38;97549.00;;;14.40
35582;BMP180;21687;48.900;9.188;2023-08-06T05:57:06;97555.00;;;14.60
35582;BMP180;21687;48.900;9.188;2023-08-06T05:59:33;97559.00;;;14.70
35582;BMP180;21687;48.900;9.188;2023-08-06T06:01:59;97553.00;;;14.70
35582;BMP180;21687;48.900;9.188;2023-08-06T06:04:25;97563.00;;;14.70
35582;BMP180;21687;48.900;9.188;2023-08-06T06:06:52;97560.00;;;14.70
35582;BMP180;21687;48.900;9.188;2023-08-06T06:09:18;97549.00;;;14.70
35582;BMP180;21687;48.900;9.188;2023-08-06T06:11:44;97569.00;;;14.70
35582;BMP180;21687;48.900;9.188;2023-08-06T06:14:11;97568.00;;;14.70
35582;BMP180;21687;48.900;9.188;2023-08-06T06:16:37;97568.00;;;14.70
35582;BMP180;21687;48.900;9.188;2023-08-06T06:19:03;97573.00;;;14.50
35582;BMP180;21687;48.900;9.188;2023-08-06T06:21:29;97571.00;;;14.40
35582;BMP180;21687;48.900;9.188;2023-08-06T06:23:56;97585.00;;;14.30
35582;BMP180;21687;48.900;9.188;2023-08-06T06:26:23;97580.00;;;14.20
35582;BMP180;21687;48.900;9.188;2023-08-06T06:28:49;97578.00;;;14.10
35582;BMP180;21687;48.900;9.188;2023-08-06T06:31:16;97577.00;;;14.00
35582;BMP180;21687;48.900;9.188;2023-08-06T06:33:42;97584.00;;;14.00
35582;BMP180;21687;48.900;9.188;2023-08-06T06:36:08;97579.00;;;14.00
35582;BMP180;21687;48.900;9.188;2023-08-06T06:38:36;97584.00;;;13.90
35582;BMP180;21687;48.900;9.188;2023-08-06T06:41:02;97587.00;;;13.80
35582;BMP180;21687;48.900;9.188;2023-08-06T06:43:29;97585.00;;;13.70
35582;BMP180;21687;48.900;9.188;2023-08-06T06:45:59;97584.00;;;13.70
35582;BMP180;21687;48.900;9.188;2023-08-06T06:48:31;97590.00;;;13.70
35582;BMP180;21687;48.900;9.188;2023-08-06T06:50:57;97586.00;;;13.80
35582;BMP180;21687;48.900;9.188;2023-08-06T06:53:24;97586.00;;;13.80
35582;BMP180;21687;48.900;9.188;2023-08-06T06:55:54;97582.00;;;13.70
35582;BMP180;21687;48.900;9.188;2023-08-06T06:58:21;97586.00;;;13.60
35582;BMP180;21687;48.900;9.188;2023-08-06T07:00:48;97585.00;;;13.60
35582;BMP180;21687;48.900;9.188;2023-08-06T07:03:15;97568.00;;;13.70
35582;BMP180;21687;48.900;9.188;2023-08-06T07:05:42;97583.00;;;13.80
35582;BMP180;21687;48.900;9.188;2023-08-06T07:08:08;97578.00;;;14.00
35582;BMP180;21687;48.900;9.188;2023-08-06T07:10:34;97579.00;;;14.10
35582;BMP180;21687;48.900;9.188;2023-08-06T07:13:00;97578.00;;;14.20
35582;BMP180;21687;48.900;9.188;2023-08-06T07:15:26;97589.00;;;14.20
35582;BMP180;21687;48.900;9.188;2023-08-06T07:17:53;97593.00;;;14.20
35582;BMP180;21687;48.900;9.188;2023-08-06T07:20:19;97582.00;;;14.10
35582;BMP180;21687;48.900;9.188;2023-08-06T07:22:46;97591.00;;;14.00
35582;BMP180;21687;48.900;9.188;2023-08-06T07:25:12;97598.00;;;13.90
35582;BMP180;21687;48.900;9.188;2023-08-06T07:27:38;97593.00;;;14.00
35582;BMP180;21687;48.900;9.188;2023-08-06T07:30:05;97600.00;;;14.00
35582;BMP180;21687;48.900;9.188;2023-08-06T07:32:32;97597.00;;;14.10
35582;BMP180;21687;48.900;9.188;2023-08-06T07:34:58;97593.00;;;14.10
35582;BMP180;21687;48.900;9.188;2023-08-06T07:37:26;97599.00;;;14.00
35582;BMP180;21687;48.900;9.188;2023-08-06T07:39:56;97604.00;;;14.10
35582;BMP180;21687;48.900;9.188;2023-08-06T07:42:22;97585.00;;;14.10
35582;BMP180;21687;48.900;9.188;2023-08-06T07:44:56;97592.00;;;14.20
35582;BMP180;21687;48.900;9.188;2023-08-06T07:47:23;97591.00;;;14.20
35582;BMP180;21687;48.900;9.188;2023-08-06T07:49:49;97581.00;;;14.40
35582;BMP180;21687;48.900;9.188;2023-08-06T07:52:16;97586.00;;;14.70
35582;BMP180;21687;48.900;9.188;2023-08-06T07:54:42;97585.00;;;14.80
35582;BMP180;21687;48.900;9.188;2023-08-06T07:57:09;97588.00;;;15.10
35582;BMP180;21687;48.900;9.188;2023-08-06T07:59:36;97590.00;;;15.40
35582;BMP180;21687;48.900;9.188;2023-08-06T08:02:02;97591.00;;;15.20
35582;BMP180;21687;48.900;9.188;2023-08-06T08:04:28;97585.00;;;15.10
35582;BMP180;21687;48.900;9.188;2023-08-06T08:06:55;97587.00;;;15.20
35582;BMP180;21687;48.900;9.188;2023-08-06T08:09:22;97589.00;;;15.20
35582;BMP180;21687;48.900;9.188;2023-08-06T08:11:48;97577.00;;;15.30
35582;BMP180;21687;48.900;9.188;2023-08-06T08:14:14;97584.00;;;15.60
35582;BMP180;21687;48.900;9.188;2023-08-06T08:16:40;97575.00;;;15.80
35582;BMP180;21687;48.900;9.188;2023-08-06T08:19:07;97583.00;;;16.20
35582;BMP180;21687;48.900;9.188;2023-08-06T08:21:33;97577.00;;;16.60
35582;BMP180;21687;48.900;9.188;2023-08-06T08:24:00;97574.00;;;17.00
35582;BMP180;21687;48.900;9.188;2023-08-06T08:26:27;97579.00;;;17.50
35582;BMP180;21687;48.900;9.188;2023-08-06T08:28:56;97574.00;;;17.50
35582;BMP180;21687;48.900;9.188;2023-08-06T08:31:23;97574.00;;;17.50
35582;BMP180;21687;48.900;9.188;2023-08-06T08:33:49;97571.00;;;17.40
35582;BMP180;21687;48.900;9.188;2023-08-06T08:36:15;97578.00;;;17.30
35582;BMP180;21687;48.900;9.188;2023-08-06T08:38:42;97572.00;;;17.00
35582;BMP180;21687;48.900;9.188;2023-08-06T08:41:10;97577.00;;;16.80
35582;BMP180;21687;48.900;9.188;2023-08-06T08:43:37;97578.00;;;16.80
35582;BMP180;21687;48.900;9.188;2023-08-06T08:46:05;97572.00;;;16.70
35582;BMP180;21687;48.900;9.188;2023-08-06T08:48:31;97576.00;;;16.50
35582;BMP180;21687;48.900;9.188;2023-08-06T08:50:58;97579.00;;;16.40
35582;BMP180;21687;48.900;9.188;2023-08-06T08:53:25;97579.00;;;16.40
35582;BMP180;21687;48.900;9.188;2023-08-06T08:55:53;97570.00;;;16.50
35582;BMP180;21687;48.900;9.188;2023-08-06T08:58:20;97582.00;;;16.30
35582;BMP180;21687;48.900;9.188;2023-08-06T09:00:47;97576.00;;;15.80
35582;BMP180;21687;48.900;9.188;2023-08-06T09:03:17;97593.00;;;15.30
35582;BMP180;21687;48.900;9.188;2023-08-06T09:05:52;97608.00;;;14.90
35582;BMP180;21687;48.900;9.188;2023-08-06T09:08:20;97603.00;;;14.60
35582;BMP180;21687;48.900;9.188;2023-08-06T09:10:49;97601.00;;;14.30
35582;BMP180;21687;48.900;9.188;2023-08-06T09:13:16;97604.00;;;14.30
35582;BMP180;21687;48.900;9.188;2023-08-06T09:15:42;97594.00;;;14.20
35582;BMP180;21687;48.900;9.188;2023-08-06T09:18:10;97604.00;;;14.30
35582;BMP180;21687;48.900;9.188;2023-08-06T09:20:41;97606.00;;;14.20
35582;BMP180;21687;48.900;9.188;2023-08-06T09:23:11;97611.00;;;14.30
35582;BMP180;21687;48.900;9.188;2023-08-06T09:25:40;97618.00;;;14.30
35582;BMP180;21687;48.900;9.188;2023-08-06T09:28:06;97600.00;;;14.40
35582;BMP180;21687;48.900;9.188;2023-08-06T09:30:37;97607.00;;;14.40
35582;BMP180;21687;48.900;9.188;2023-08-06T09:33:07;97597.00;;;14.70
35582;BMP180;21687;48.900;9.188;2023-08-06T09:35:36;97604.00;;;15.00
35582;BMP180;21687;48.900;9.188;2023-08-06T09:38:06;97606.00;;;15.20
35582;BMP180;21687;48.900;9.188;2023-08-06T09:40:33;97603.00;;;15.40
35582;BMP180;21687;48.900;9.188;2023-08-06T09:43:01;97613.00;;;15.50
35582;BMP180;21687;48.900;9.188;2023-08-06T09:45:31;97622.00;;;15.30
35582;BMP180;21687;48.900;9.188;2023-08-06T09:47:59;97620.00;;;15.20
35582;BMP180;21687;48.900;9.188;2023-08-06T09:50:30;97623.00;;;15.30
35582;BMP180;21687;48.900;9.188;2023-08-06T09:53:01;97621.00;;;15.40
35582;BMP180;21687;48.900;9.188;2023-08-06T09:55:28;97613.00;;;15.30
35582;BMP180;21687;48.900;9.188;2023-08-06T09:57:55;97605.00;;;15.40
35582;BMP180;21687;48.900;9.188;2023-08-06T10:00:22;97621.00;;;15.40
35582;BMP180;21687;48.900;9.188;2023-08-06T10:02:49;97615.00;;;15.40
35582;BMP180;21687;48.900;9.188;2023-08-06T10:05:18;97613.00;;;15.30
35582;BMP180;21687;48.900;9.188;2023-08-06T10:07:45;97619.00;;;15.40
35582;BMP180;21687;48.900;9.188;2023-08-06T10:10:12;97612.00;;;15.40
35582;BMP180;21687;48.900;9.188;2023-08-06T10:12:42;97616.00;;;15.70
35582;BMP180;21687;48.900;9.188;2023-08-06T10:15:15;97622.00;;;15.70
35582;BMP180;21687;48.900;9.188;2023-08-06T10:17:44;97628.00;;;15.70
35582;BMP180;21687;48.900;9.188;2023-08-06T10:20:12;97619.00;;;15.70
35582;BMP180;21687;48.900;9.188;2023-08-06T10:22:43;97607.00;;;15.90
35582;BMP180;21687;48.900;9.188;2023-08-06T10:25:10;97611.00;;;16.20
35582;BMP180;21687;48.900;9.188;2023-08-06T10:30:42;97614.00;;;16.40
35582;BMP180;21687;48.900;9.188;2023-08-06T10:33:10;97612.00;;;16.40
35582;BMP180;21687;48.900;9.188;2023-08-06T10:35:46;97622.00;;;16.20
35582;BMP180;21687;48.900;9.188;2023-08-06T10:38:17;97627.00;;;16.00
35582;BMP180;21687;48.900;9.188;2023-08-06T10:43:35;97618.00;;;16.10
35582;BMP180;21687;48.900;9.188;2023-08-06T10:46:09;97626.00;;;16.20
35582;BMP180;21687;48.900;9.188;2023-08-06T10:51:11;97633.00;;;16.30
35582;BMP180;21687;48.900;9.188;2023-08-06T10:53:41;97642.00;;;16.30
35582;BMP180;21687;48.900;9.188;2023-08-06T10:56:15;97632.00;;;16.10
35582;BMP180;21687;48.900;9.188;2023-08-06T10:58:42;97643.00;;;16.00
35582;BMP180;21687;48.900;9.188;2023-08-06T11:01:09;97647.00;;;15.80
35582;BMP180;21687;48.900;9.188;2023-08-06T11:03:37;97663.00;;;15.70
35582;BMP180;21687;48.900;9.188;2023-08-06T11:06:04;97661.00;;;15.40
35582;BMP180;21687;48.900;9.188;2023-08-06T11:08:35;97662.00;;;15.40
35582;BMP180;21687;48.900;9.188;2023-08-06T11:11:28;97679.00;;;15.50
35582;BMP180;21687;48.900;9.188;2023-08-06T11:13:55;97669.00;;;15.40
35582;BMP180;21687;48.900;9.188;2023-08-06T11:16:25;97672.00;;;15.20
35582;BMP180;21687;48.900;9.188;2023-08-06T11:18:51;97675.00;;;15.10
35582;BMP180;21687;48.900;9.188;2023-08-06T11:21:23;97678.00;;;14.90
35582;BMP180;21687;48.900;9.188;2023-08-06T11:23:51;97666.00;;;14.90
35582;BMP180;21687;48.900;9.188;2023-08-06T11:26:19;97670.00;;;14.70
35582;BMP180;21687;48.900;9.188;2023-08-06T11:28:46;97678.00;;;14.80
35582;BMP180;21687;48.900;9.188;2023-08-06T11:31:20;97681.00;;;14.60
35582;BMP180;21687;48.900;9.188;2023-08-06T11:33:46;97668.00;;;14.70
35582;BMP180;21687;48.900;9.188;2023-08-06T11:36:12;97670.00;;;14.70
35582;BMP180;21687;48.900;9.188;2023-08-06T11:38:39;97670.00;;;14.80
35582;BMP180;21687;48.900;9.188;2023-08-06T11:41:07;97687.00;;;14.90
35582;BMP180;21687;48.900;9.188;2023-08-06T11:43:33;97689.00;;;14.90
35582;BMP180;21687;48.900;9.188;2023-08-06T11:45:59;97695.00;;;14.80
35582;BMP180;21687;48.900;9.188;2023-08-06T11:48:26;97678.00;;;14.70
35582;BMP180;21687;48.900;9.188;2023-08-06T11:50:55;97672.00;;;14.50
35582;BMP180;21687;48.900;9.188;2023-08-06T11:53:28;97689.00;;;14.40
35582;BMP180;21687;48.900;9.188;2023-08-06T11:55:55;97692.00;;;14.30
35582;BMP180;21687;48.900;9.188;2023-08-06T11:58:21;97703.00;;;14.10
35582;BMP180;21687;48.900;9.188;2023-08-06T12:00:48;97690.00;;;13.90
35582;BMP180;21687;48.900;9.188;2023-08-06T12:03:14;97706.00;;;13.80
35582;BMP180;21687;48.900;9.188;2023-08-06T12:05:40;97707.00;;;13.60
35582;BMP180;21687;48.900;9.188;2023-08-06T12:08:06;97708.00;;;13.40
35582;BMP180;21687;48.900;9.188;2023-08-06T12:10:35;97723.00;;;13.30
35582;BMP180;21687;48.900;9.188;2023-08-06T12:13:01;97720.00;;;13.10
35582;BMP180;21687;48.900;9.188;2023-08-06T12:15:29;97714.00;;;13.00
35582;BMP180;21687;48.900;9.188;2023-08-06T12:17:55;97727.00;;;12.90
35582;BMP180;21687;48.900;9.188;2023-08-06T12:20:21;97720.00;;;12.90
35582;BMP180;21687;48.900;9.188;2023-08-06T12:22:48;97728.00;;;12.80
35582;BMP180;21687;48.900;9.188;2023-08-06T12:25:14;97732.00;;;12.80
35582;BMP180;21687;48.900;9.188;2023-08-06T12:27:42;97732.00;;;12.80
35582;BMP180;21687;48.900;9.188;2023-08-06T12:30:09;97740.00;;;12.80
35582;BMP180;21687;48.900;9.188;2023-08-06T12:32:37;97748.00;;;12.80
35582;BMP180;21687;48.900;9.188;2023-08-06T12:35:03;97743.00;;;12.80
35582;BMP180;21687;48.900;9.188;2023-08-06T12:37:30;97751.00;;;12.90
35582;BMP180;21687;48.900;9.188;2023-08-06T12:39:57;97748.00;;;12.90
35582;BMP180;21687;48.900;9.188;2023-08-06T12:42:23;97759.00;;;12.90
35582;BMP180;21687;48.900;9.188;2023-08-06T12:44:50;97750.00;;;13.00
35582;BMP180;21687;48.900;9.188;2023-08-06T12:47:17;97760.00;;;13.10
35582;BMP180;21687;48.900;9.188;2023-08-06T12:49:44;97745.00;;;13.20
35582;BMP180;21687;48.900;9.188;2023-08-06T12:52:10;97754.00;;;13.30
35582;BMP180;21687;48.900;9.188;2023-08-06T12:54:38;97760.00;;;13.40
35582;BMP180;21687;48.900;9.188;2023-08-06T12:57:05;97758.00;;;13.60
35582;BMP180;21687;48.900;9.188;2023-08-06T12:59:32;97760.00;;;13.70
35582;BMP180;21687;48.900;9.188;2023-08-06T13:01:59;97777.00;;;13.90
35582;BMP180;21687;48.900;9.188;2023-08-06T13:04:25;97776.00;;;14.10
35582;BMP180;21687;48.900;9.188;2023-08-06T13:06:52;97784.00;;;14.40
35582;BMP180;21687;48.900;9.188;2023-08-06T13:09:18;97778.00;;;14.60
35582;BMP180;21687;48.900;9.188;2023-08-06T13:11:45;97789.00;;;14.60
35582;BMP180;21687;48.900;9.188;2023-08-06T13:14:16;97795.00;;;14.70
35582;BMP180;21687;48.900;9.188;2023-08-06T13:16:44;97781.00;;;14.70
35582;BMP180;21687;48.900;9.188;2023-08-06T13:19:10;97780.00;;;14.90
35582;BMP180;21687;48.900;9.188;2023-08-06T13:24:09;97796.00;;;14.90
35582;BMP180;21687;48.900;9.188;2023-08-06T13:26:35;97804.00;;;15.10
35582;BMP180;21687;48.900;9.188;2023-08-06T13:29:02;97802.00;;;15.20
35582;BMP180;21687;48.900;9.188;2023-08-06T13:31:29;97789.00;;;15.20
35582;BMP180;21687;48.900;9.188;2023-08-06T13:33:56;97781.00;;;15.50
35582;BMP180;21687;48.900;9.188;2023-08-06T13:36:24;97783.00;;;15.70
35582;BMP180;21687;48.900;9.188;2023-08-06T13:38:51;97779.00;;;15.90
35582;BMP180;21687;48.900;9.188;2023-08-06T13:41:17;97784.00;;;15.70
35582;BMP180;21687;48.900;9.188;2023-08-06T13:43:44;97806.00;;;15.70
35582;BMP180;21687;48.900;9.188;2023-08-06T13:46:11;97804.00;;;15.60
35582;BMP180;21687;48.900;9.188;2023-08-06T13:48:42;97808.00;;;15.60
35582;BMP180;21687;48.900;9.188;2023-08-06T13:51:10;97819.00;;;15.80
35582;BMP180;21687;48.900;9.188;2023-08-06T13:53:37;97805.00;;;15.90
35582;BMP180;21687;48.900;9.188;2023-08-06T13:56:05;97809.00;;;16.10
35582;BMP180;21687;48.900;9.188;2023-08-06T13:58:32;97821.00;;;16.10
35582;BMP180;21687;48.900;9.188;2023-08-06T14:00:59;97824.00;;;16.00
35582;BMP180;21687;48.900;9.188;2023-08-06T14:03:25;97818.00;;;16.00
35582;BMP180;21687;48.900;9.188;2023-08-06T14:05:52;97829.00;;;15.90
35582;BMP180;21687;48.900;9.188;2023-08-06T14:08:21;97834.00;;;15.80
35582;BMP180;21687;48.900;9.188;2023-08-06T14:10:48;97850.00;;;15.70
35582;BMP180;21687;48.900;9.188;2023-08-06T14:13:14;97847.00;;;15.60
35582;BMP180;21687;48.900;9.188;2023-08-06T14:15:41;97872.00;;;14.90
35582;BMP180;21687;48.900;9.188;2023-08-06T14:18:07;97863.00;;;14.50
35582;BMP180;21687;48.900;9.188;2023-08-06T14:20:36;97851.00;;;14.30
35582;BMP180;21687;48.900;9.188;2023-08-06T14:23:03;97864.00;;;14.00